createdAt,value
2022-12-19T00:01:37.248Z,4.97
2022-12-19T00:04:08.177Z,3.57
2022-12-19T00:06:37.008Z,3.03
2022-12-19T00:09:04.568Z,2.87
2022-12-19T00:11:31.939Z,3.33
2022-12-19T00:13:59.767Z,3.70
2022-12-19T00:16:28.530Z,5.43
2022-12-19T00:18:57.047Z,3.57
2022-12-19T00:21:25.657Z,5.87
2022-12-19T00:23:53.466Z,4.23
2022-12-19T00:26:22.069Z,5.07
2022-12-19T00:28:51.088Z,3.30
2022-12-19T00:31:19.413Z,6.37
2022-12-19T00:33:47.505Z,5.13
2022-12-19T00:36:16.880Z,4.57
2022-12-19T00:38:51.373Z,4.53
2022-12-19T00:41:23.623Z,2.60
2022-12-19T00:43:58.031Z,6.80
2022-12-19T00:46:25.582Z,3.53
2022-12-19T00:48:52.957Z,2.67
2022-12-19T00:51:21.781Z,2.67
2022-12-19T00:53:49.584Z,4.60
2022-12-19T00:56:19.112Z,5.17
2022-12-19T00:58:47.482Z,3.50
2022-12-19T01:01:16.391Z,2.93
2022-12-19T01:04:04.295Z,3.20
2022-12-19T01:06:32.720Z,2.97
2022-12-19T01:09:00.633Z,2.77
2022-12-19T01:11:46.597Z,3.37
2022-12-19T01:14:20.790Z,4.00
2022-12-19T01:16:50.566Z,4.17
2022-12-19T01:19:19.323Z,3.10
2022-12-19T01:21:46.695Z,2.47
2022-12-19T01:24:14.116Z,3.33
2022-12-19T01:26:45.788Z,2.57
2022-12-19T01:29:13.135Z,3.60
2022-12-19T01:31:40.432Z,2.50
2022-12-19T01:34:07.796Z,3.50
2022-12-19T01:36:38.633Z,3.17
2022-12-19T01:39:07.287Z,3.73
2022-12-19T01:41:34.785Z,3.70
2022-12-19T01:44:02.068Z,3.23
2022-12-19T01:46:36.886Z,5.63
2022-12-19T01:49:05.362Z,8.00
2022-12-19T01:51:40.508Z,3.77
2022-12-19T01:54:12.177Z,3.53
2022-12-19T01:56:40.975Z,4.40
2022-12-19T01:59:10.279Z,3.80
2022-12-19T02:01:51.088Z,3.23
2022-12-19T02:04:19.428Z,2.57
2022-12-19T02:06:47.767Z,2.53
2022-12-19T02:09:15.182Z,3.83
2022-12-19T02:11:42.544Z,4.37
2022-12-19T02:14:09.991Z,7.00
2022-12-19T02:16:40.606Z,2.90
2022-12-19T02:19:11.228Z,2.77
2022-12-19T02:22:00.769Z,2.30
2022-12-19T02:24:28.462Z,3.10
2022-12-19T02:26:57.764Z,7.47
2022-12-19T02:29:35.210Z,3.30
2022-12-19T02:32:06.897Z,2.77
2022-12-19T02:34:42.831Z,4.20
2022-12-19T02:37:20.915Z,3.37
2022-12-19T02:40:03.222Z,2.50
2022-12-19T02:42:32.236Z,4.00
2022-12-19T02:45:03.273Z,5.33
2022-12-19T02:47:32.755Z,2.50
2022-12-19T02:50:02.860Z,2.90
2022-12-19T02:52:30.620Z,2.60
2022-12-19T02:54:59.729Z,3.00
2022-12-19T02:57:28.243Z,3.57
2022-12-19T03:00:04.902Z,2.97
2022-12-19T03:02:56.728Z,4.13
2022-12-19T03:05:40.674Z,3.00
2022-12-19T03:08:41.317Z,3.00
2022-12-19T03:11:13.346Z,2.37
2022-12-19T03:13:58.790Z,5.07
2022-12-19T03:16:26.407Z,3.67
2022-12-19T03:18:54.375Z,2.27
2022-12-19T03:21:23.957Z,3.13
2022-12-19T03:23:53.468Z,2.07
2022-12-19T03:26:22.414Z,4.23
2022-12-19T03:28:58.265Z,3.17
2022-12-19T03:31:28.423Z,2.00
2022-12-19T03:33:57.544Z,2.83
2022-12-19T03:36:28.039Z,2.07
2022-12-19T03:38:56.461Z,1.90
2022-12-19T03:41:43.940Z,2.60
2022-12-19T03:44:11.770Z,2.67
2022-12-19T03:46:42.383Z,2.60
2022-12-19T03:49:09.817Z,3.13
2022-12-19T03:51:48.824Z,3.03
2022-12-19T03:54:26.783Z,3.40
2022-12-19T03:57:08.354Z,3.23
2022-12-19T03:59:45.890Z,3.17
2022-12-19T04:02:17.165Z,2.90
2022-12-19T04:04:46.486Z,1.90
2022-12-19T04:07:14.216Z,1.60
2022-12-19T04:09:42.666Z,1.97
2022-12-19T04:12:13.467Z,2.03
2022-12-19T04:14:41.206Z,2.40
2022-12-19T04:17:27.549Z,1.83
2022-12-19T04:20:02.156Z,2.50
2022-12-19T04:22:52.299Z,2.53
2022-12-19T04:25:26.341Z,1.87
2022-12-19T04:27:58.753Z,3.63
2022-12-19T04:30:26.837Z,2.53
2022-12-19T04:32:54.709Z,1.90
2022-12-19T04:35:22.021Z,1.80
2022-12-19T04:37:49.583Z,2.23
2022-12-19T04:40:16.926Z,2.80
2022-12-19T04:42:44.217Z,1.90
2022-12-19T04:45:11.676Z,2.37
2022-12-19T04:47:39.078Z,1.63
2022-12-19T04:50:06.625Z,3.17
2022-12-19T04:52:33.960Z,1.97
2022-12-19T04:55:01.259Z,1.57
2022-12-19T04:57:32.019Z,1.63
2022-12-19T04:59:59.591Z,2.47
2022-12-19T05:02:27.086Z,2.13
2022-12-19T05:04:55.120Z,1.87
2022-12-19T05:07:22.534Z,1.47
2022-12-19T05:09:49.878Z,1.80
2022-12-19T05:12:17.112Z,2.47
2022-12-19T05:14:44.731Z,2.40
2022-12-19T05:17:12.032Z,1.60
2022-12-19T05:19:39.329Z,1.80
2022-12-19T05:22:06.666Z,1.60
2022-12-19T05:24:34.021Z,2.13
2022-12-19T05:27:01.325Z,3.03
2022-12-19T05:29:28.886Z,1.83
2022-12-19T05:31:56.448Z,1.87
2022-12-19T05:34:27.472Z,1.73
2022-12-19T05:36:54.938Z,1.50
2022-12-19T05:39:22.224Z,1.70
2022-12-19T05:41:49.516Z,1.53
2022-12-19T05:44:17.333Z,2.20
2022-12-19T05:46:45.126Z,1.50
2022-12-19T05:49:12.503Z,7.73
2022-12-19T05:51:43.110Z,1.83
2022-12-19T05:54:13.404Z,1.50
2022-12-19T05:56:40.744Z,1.73
2022-12-19T05:59:08.110Z,1.98
2022-12-19T06:01:37.554Z,1.83
2022-12-19T06:04:04.946Z,1.80
2022-12-19T06:06:32.503Z,1.53
2022-12-19T06:09:00.273Z,2.67
2022-12-19T06:11:27.600Z,2.47
2022-12-19T06:13:55.028Z,2.10
2022-12-19T06:16:23.083Z,1.70
2022-12-19T06:18:50.713Z,1.57
2022-12-19T06:21:19.215Z,1.27
2022-12-19T06:23:46.871Z,1.40
2022-12-19T06:26:19.456Z,1.63
2022-12-19T06:28:48.087Z,1.67
2022-12-19T06:31:15.983Z,2.00
2022-12-19T06:33:43.473Z,2.33
2022-12-19T06:36:19.681Z,2.13
2022-12-19T06:38:47.309Z,1.43
2022-12-19T06:41:33.821Z,1.47
2022-12-19T06:44:01.595Z,1.63
2022-12-19T06:46:29.340Z,2.07
2022-12-19T06:48:56.710Z,2.07
2022-12-19T06:51:24.065Z,1.23
2022-12-19T06:53:51.545Z,1.50
2022-12-19T06:56:19.072Z,2.00
2022-12-19T06:58:46.553Z,1.80
2022-12-19T07:01:37.033Z,3.83
2022-12-19T07:04:04.670Z,1.70
2022-12-19T07:06:32.041Z,1.97
2022-12-19T07:09:00.085Z,1.60
2022-12-19T07:11:27.388Z,3.07
2022-12-19T07:13:54.746Z,1.70
2022-12-19T07:16:24.353Z,2.40
2022-12-19T07:18:51.699Z,1.53
2022-12-19T07:21:19.005Z,1.63
2022-12-19T07:23:46.578Z,1.60
2022-12-19T07:26:13.910Z,1.60
2022-12-19T07:28:41.281Z,1.80
2022-12-19T07:31:08.647Z,1.70
2022-12-19T07:33:36.027Z,2.83
2022-12-19T07:36:03.532Z,1.67
2022-12-19T07:38:30.881Z,1.80
2022-12-19T07:41:01.195Z,2.43
2022-12-19T07:43:28.512Z,1.90
2022-12-19T07:45:56.343Z,1.60
2022-12-19T07:48:24.094Z,2.07
2022-12-19T07:50:51.597Z,1.97
2022-12-19T07:53:19.001Z,2.03
2022-12-19T07:55:46.314Z,1.63
2022-12-19T07:58:13.630Z,1.63
2022-12-19T08:00:41.012Z,1.60
2022-12-19T08:03:08.366Z,1.50
2022-12-19T08:05:35.816Z,2.07
2022-12-19T08:08:03.271Z,1.50
2022-12-19T08:10:30.966Z,1.60
2022-12-19T08:12:58.283Z,1.80
2022-12-19T08:15:25.764Z,2.20
2022-12-19T08:17:54.434Z,1.77
2022-12-19T08:20:21.980Z,1.83
2022-12-19T08:22:49.326Z,1.63
2022-12-19T08:25:16.748Z,2.17
2022-12-19T08:27:44.069Z,1.90
2022-12-19T08:30:13.378Z,1.50
2022-12-19T08:32:40.842Z,1.70
2022-12-19T08:35:08.674Z,1.50
2022-12-19T08:37:36.184Z,2.30
2022-12-19T08:40:03.594Z,2.97
2022-12-19T08:42:31.031Z,1.67
2022-12-19T08:44:58.461Z,1.70
2022-12-19T08:47:25.860Z,1.40
2022-12-19T08:49:53.226Z,2.33
2022-12-19T08:52:20.567Z,1.63
2022-12-19T08:54:48.208Z,1.30
2022-12-19T08:57:15.599Z,1.70
2022-12-19T08:59:42.875Z,1.20
2022-12-19T09:02:11.685Z,1.80
2022-12-19T09:05:57.668Z,1.10
2022-12-19T09:07:26.452Z,1.70
2022-12-19T09:09:54.117Z,1.63
2022-12-19T09:12:21.426Z,1.70
2022-12-19T09:14:48.848Z,1.87
2022-12-19T09:17:16.326Z,1.80
2022-12-19T09:19:44.529Z,1.67
2022-12-19T09:22:15.963Z,1.50
2022-12-19T09:24:43.426Z,1.57
2022-12-19T09:27:10.745Z,1.40
2022-12-19T09:29:38.079Z,1.60
2022-12-19T09:32:05.517Z,1.40
2022-12-19T09:34:38.548Z,1.37
2022-12-19T09:37:16.454Z,1.90
2022-12-19T09:39:48.854Z,1.50
2022-12-19T09:42:22.031Z,1.67
2022-12-19T09:44:55.694Z,1.17
2022-12-19T09:47:23.343Z,1.60
2022-12-19T09:49:52.057Z,1.67
2022-12-19T09:52:26.909Z,1.50
2022-12-19T09:55:05.117Z,1.43
2022-12-19T09:57:52.832Z,1.50
2022-12-19T10:00:21.557Z,1.60
2022-12-19T10:03:08.244Z,1.70
2022-12-19T10:06:49.667Z,1.70
2022-12-19T10:10:24.136Z,1.13
2022-12-19T10:12:44.448Z,1.63
2022-12-19T10:14:37.594Z,2.07
2022-12-19T10:17:27.044Z,1.73
2022-12-19T10:20:03.671Z,1.73
2022-12-19T10:22:44.825Z,1.47
2022-12-19T10:25:21.313Z,1.37
2022-12-19T10:28:07.428Z,1.33
2022-12-19T10:30:39.347Z,1.83
2022-12-19T10:33:20.681Z,1.47
2022-12-19T10:35:51.856Z,1.87
2022-12-19T10:38:31.915Z,1.40
2022-12-19T10:41:15.702Z,1.70
2022-12-19T10:43:46.148Z,1.20
2022-12-19T10:46:20.840Z,1.20
2022-12-19T10:48:51.927Z,1.50
2022-12-19T10:51:28.170Z,1.50
2022-12-19T10:53:57.172Z,1.30
2022-12-19T10:56:37.413Z,1.50
2022-12-19T10:59:16.152Z,1.60
2022-12-19T11:01:44.230Z,2.40
2022-12-19T11:04:14.858Z,1.40
2022-12-19T11:06:46.842Z,1.40
2022-12-19T11:09:22.085Z,1.20
2022-12-19T11:13:30.974Z,1.57
2022-12-19T11:19:21.245Z,2.57
2022-12-19T11:23:01.789Z,1.73
2022-12-19T11:29:38.720Z,1.20
2022-12-19T11:30:05.877Z,1.37
2022-12-19T11:30:34.384Z,1.77
2022-12-19T11:32:01.785Z,1.33
2022-12-19T11:32:39.016Z,1.23
2022-12-19T11:35:00.951Z,1.63
2022-12-19T11:37:34.031Z,1.30
2022-12-19T11:40:03.959Z,1.07
2022-12-19T11:42:33.834Z,1.33
2022-12-19T11:45:20.136Z,1.53
2022-12-19T11:48:00.993Z,1.33
2022-12-19T11:50:29.780Z,1.30
2022-12-19T11:53:18.619Z,1.60
2022-12-19T11:55:46.651Z,1.03
2022-12-19T11:58:14.586Z,1.63
2022-12-19T12:00:47.026Z,1.60
2022-12-19T12:03:14.381Z,2.20
2022-12-19T12:05:46.394Z,1.37
2022-12-19T12:09:04.499Z,1.30
2022-12-19T12:17:28.089Z,1.50
2022-12-19T12:26:51.568Z,1.40
2022-12-19T12:31:20.596Z,1.50
2022-12-19T12:31:29.758Z,1.30
2022-12-19T12:31:58.101Z,1.30
2022-12-19T12:31:58.268Z,3.67
2022-12-19T12:32:01.908Z,1.20
2022-12-19T12:35:33.277Z,1.37
2022-12-19T12:37:51.582Z,1.50
2022-12-19T12:39:16.176Z,2.07
2022-12-19T12:42:04.397Z,1.27
2022-12-19T12:44:45.153Z,1.40
2022-12-19T12:47:18.634Z,1.37
2022-12-19T12:49:47.876Z,1.50
2022-12-19T12:52:17.663Z,1.17
2022-12-19T12:54:51.149Z,2.03
2022-12-19T12:57:30.589Z,3.07
2022-12-19T13:00:23.935Z,1.40
2022-12-19T13:02:57.393Z,1.10
2022-12-19T13:05:24.762Z,1.20
2022-12-19T13:07:53.628Z,1.53
2022-12-19T13:10:28.785Z,1.70
2022-12-19T13:13:01.062Z,1.63
2022-12-19T13:15:28.425Z,1.50
2022-12-19T13:17:55.736Z,1.60
2022-12-19T13:20:27.750Z,1.80
2022-12-19T13:22:58.580Z,1.83
2022-12-19T13:25:35.463Z,1.40
2022-12-19T13:28:02.796Z,2.00
2022-12-19T13:30:31.130Z,2.23
2022-12-19T13:33:01.524Z,1.40
2022-12-19T13:36:08.595Z,1.50
2022-12-19T13:39:49.773Z,1.57
2022-12-19T13:41:26.537Z,1.57
2022-12-19T13:43:59.248Z,3.27
2022-12-19T13:46:29.799Z,1.33
2022-12-19T13:49:00.212Z,1.73
2022-12-19T13:51:27.497Z,1.73
2022-12-19T13:53:59.555Z,1.80
2022-12-19T13:56:31.802Z,1.70
2022-12-19T13:59:01.657Z,1.53
2022-12-19T14:01:33.610Z,1.60
2022-12-19T14:04:08.085Z,1.70
2022-12-19T14:06:40.735Z,1.40
2022-12-19T14:11:27.388Z,1.70
2022-12-19T14:13:45.585Z,1.60
2022-12-19T14:15:13.676Z,1.10
2022-12-19T14:17:41.404Z,1.30
2022-12-19T14:22:01.464Z,1.40
2022-12-19T14:22:59.887Z,1.70
2022-12-19T14:28:25.225Z,1.17
2022-12-19T14:28:52.448Z,1.30
2022-12-19T14:31:22.917Z,1.17
2022-12-19T14:34:19.051Z,1.73
2022-12-19T14:36:40.866Z,1.50
2022-12-19T14:39:22.476Z,1.33
2022-12-19T14:42:19.972Z,1.50
2022-12-19T14:53:51.900Z,1.07
2022-12-19T14:54:09.343Z,2.43
2022-12-19T14:54:24.346Z,1.30
2022-12-19T14:57:04.296Z,2.77
2022-12-19T14:59:36.533Z,1.77
2022-12-19T15:02:07.095Z,1.43
2022-12-19T15:04:52.361Z,1.40
2022-12-19T15:07:24.280Z,1.70
2022-12-19T15:11:05.666Z,1.57
2022-12-19T15:14:52.995Z,1.40
2022-12-19T15:16:23.731Z,1.63
2022-12-19T15:18:52.049Z,1.30
2022-12-19T15:21:19.466Z,1.17
2022-12-19T15:23:46.884Z,1.87
2022-12-19T15:26:34.526Z,1.20
2022-12-19T15:29:02.224Z,1.70
2022-12-19T15:31:35.806Z,1.30
2022-12-19T15:37:01.294Z,1.80
2022-12-19T15:39:30.209Z,1.50
2022-12-19T15:41:59.008Z,1.40
2022-12-19T15:44:32.255Z,1.60
2022-12-19T15:47:04.337Z,1.30
2022-12-19T15:49:32.929Z,1.07
2022-12-19T15:52:00.313Z,1.20
2022-12-19T15:57:27.323Z,1.70
2022-12-19T15:59:55.133Z,1.13
2022-12-19T16:02:24.221Z,1.30
2022-12-19T16:04:55.531Z,1.50
2022-12-19T16:07:27.233Z,1.50
2022-12-19T16:09:55.459Z,1.50
2022-12-19T16:12:24.836Z,1.00
2022-12-19T16:14:57.454Z,1.70
2022-12-19T16:17:26.146Z,1.17
2022-12-19T16:19:53.567Z,1.40
2022-12-19T16:22:22.340Z,1.40
2022-12-19T16:24:50.303Z,1.53
2022-12-19T16:27:19.893Z,1.60
2022-12-19T16:29:47.222Z,1.60
2022-12-19T16:32:14.777Z,1.50
2022-12-19T16:34:42.157Z,1.77
2022-12-19T16:37:09.677Z,1.37
2022-12-19T16:39:36.983Z,1.53
2022-12-19T16:42:05.331Z,1.40
2022-12-19T16:44:34.426Z,1.53
2022-12-19T16:47:01.875Z,1.10
2022-12-19T16:49:30.697Z,1.50
2022-12-19T16:51:58.217Z,1.53
2022-12-19T16:54:27.319Z,1.50
2022-12-19T16:56:54.727Z,1.77
2022-12-19T16:59:23.439Z,1.60
2022-12-19T17:01:51.284Z,1.50
2022-12-19T17:04:20.461Z,1.53
2022-12-19T17:06:48.075Z,2.13
2022-12-19T17:09:16.250Z,1.50
2022-12-19T17:11:52.595Z,1.07
2022-12-19T17:14:21.532Z,1.50
2022-12-19T17:16:49.077Z,1.43
2022-12-19T17:19:19.180Z,1.33
2022-12-19T17:21:46.527Z,1.80
2022-12-19T17:24:15.687Z,1.17
2022-12-19T17:26:44.234Z,1.40
2022-12-19T17:29:12.443Z,1.50
2022-12-19T17:31:40.242Z,1.60
2022-12-19T17:34:08.664Z,1.43
2022-12-19T17:36:37.717Z,1.43
2022-12-19T17:39:18.900Z,1.50
2022-12-19T17:41:46.362Z,1.40
2022-12-19T17:44:13.637Z,1.40
2022-12-19T17:46:40.987Z,1.60
2022-12-19T17:49:15.602Z,1.83
2022-12-19T17:51:44.039Z,1.50
2022-12-19T17:54:12.513Z,1.33
2022-12-19T17:56:42.319Z,2.17
2022-12-19T17:59:09.624Z,1.50
2022-12-19T18:01:37.999Z,1.40
2022-12-19T18:04:05.412Z,1.63
2022-12-19T18:06:32.735Z,1.57
2022-12-19T18:09:04.262Z,1.43
2022-12-19T18:11:35.523Z,1.33
2022-12-19T18:14:07.363Z,1.53
2022-12-19T18:16:34.729Z,1.37
2022-12-19T18:19:02.092Z,3.97
2022-12-19T18:21:29.390Z,2.40
2022-12-19T18:23:57.014Z,1.40
2022-12-19T18:26:27.425Z,1.20
2022-12-19T18:28:54.793Z,1.27
2022-12-19T18:31:22.230Z,2.57
2022-12-19T18:33:50.237Z,1.57
2022-12-19T18:36:19.825Z,1.80
2022-12-19T18:38:48.646Z,2.57
2022-12-19T18:41:16.963Z,1.93
2022-12-19T18:43:44.379Z,2.10
2022-12-19T18:46:13.844Z,1.30
2022-12-19T18:48:41.978Z,1.27
2022-12-19T18:51:15.676Z,1.37
2022-12-19T18:53:45.675Z,1.43
2022-12-19T18:56:13.423Z,1.77
2022-12-19T18:58:41.262Z,1.67
2022-12-19T19:01:13.365Z,1.33
2022-12-19T19:03:41.526Z,1.53
2022-12-19T19:06:19.763Z,2.23
2022-12-19T19:08:47.329Z,2.37
2022-12-19T19:11:44.940Z,1.77
2022-12-19T19:14:12.387Z,1.60
2022-12-19T19:16:40.514Z,1.13
2022-12-19T19:19:09.459Z,2.53
2022-12-19T19:21:36.794Z,1.53
2022-12-19T19:24:06.736Z,1.10
2022-12-19T19:26:34.079Z,1.80
2022-12-19T19:29:01.522Z,2.40
2022-12-19T19:31:30.685Z,1.67
2022-12-19T19:34:03.838Z,1.40
2022-12-19T19:36:33.819Z,1.27
2022-12-19T19:39:01.103Z,2.08
2022-12-19T19:41:29.917Z,1.30
2022-12-19T19:43:58.799Z,1.77
2022-12-19T19:46:30.848Z,1.40
2022-12-19T19:48:59.115Z,1.40
2022-12-19T19:51:29.061Z,1.40
2022-12-19T19:53:56.843Z,1.43
2022-12-19T19:56:24.242Z,1.47
2022-12-19T19:58:52.555Z,1.60
2022-12-19T20:01:19.969Z,1.50
2022-12-19T20:03:49.396Z,1.63
2022-12-19T20:06:16.924Z,2.10
2022-12-19T20:08:44.805Z,2.07
2022-12-19T20:11:12.174Z,1.80
2022-12-19T20:13:39.506Z,1.60
2022-12-19T20:16:08.583Z,1.50
2022-12-19T20:18:36.519Z,1.43
2022-12-19T20:21:09.199Z,1.60
2022-12-19T20:23:39.734Z,1.30
2022-12-19T20:26:07.309Z,1.67
2022-12-19T20:28:34.781Z,1.80
2022-12-19T20:31:02.461Z,1.60
2022-12-19T20:33:29.825Z,2.10
2022-12-19T20:35:57.999Z,2.03
2022-12-19T20:38:25.441Z,1.30
2022-12-19T20:40:55.865Z,1.50
2022-12-19T20:43:26.351Z,1.60
2022-12-19T20:46:00.622Z,1.70
2022-12-19T20:48:27.942Z,1.47
2022-12-19T20:50:59.249Z,1.77
2022-12-19T20:53:26.715Z,1.43
2022-12-19T20:55:57.780Z,2.13
2022-12-19T20:58:26.397Z,1.50
2022-12-19T21:00:57.498Z,1.60
2022-12-19T21:03:28.446Z,1.70
2022-12-19T21:05:57.293Z,1.10
2022-12-19T21:08:25.089Z,1.80
2022-12-19T21:10:52.646Z,1.97
2022-12-19T21:13:20.085Z,1.60
2022-12-19T21:15:51.947Z,1.50
2022-12-19T21:18:19.253Z,1.70
2022-12-19T21:20:46.788Z,1.70
2022-12-19T21:23:14.392Z,1.20
2022-12-19T21:25:41.701Z,1.77
2022-12-19T21:28:09.737Z,1.43
2022-12-19T21:30:38.200Z,1.90
2022-12-19T21:33:05.599Z,1.73
2022-12-19T21:35:34.421Z,3.73
2022-12-19T21:38:01.988Z,1.70
2022-12-19T21:40:29.320Z,1.87
2022-12-19T21:42:56.737Z,1.43
2022-12-19T21:45:24.065Z,1.70
2022-12-19T21:47:51.331Z,1.50
2022-12-19T21:50:18.611Z,1.33
2022-12-19T21:52:46.727Z,1.73
2022-12-19T21:55:15.542Z,2.27
2022-12-19T21:57:43.221Z,1.40
2022-12-19T22:00:11.634Z,1.43
2022-12-19T22:02:39.514Z,1.90
2022-12-19T22:05:07.554Z,2.83
2022-12-19T22:07:35.017Z,2.10
2022-12-19T22:10:02.319Z,1.37
2022-12-19T22:12:30.424Z,1.37
2022-12-19T22:14:57.721Z,1.23
2022-12-19T22:17:25.018Z,1.50
2022-12-19T22:19:52.334Z,2.23
2022-12-19T22:22:20.208Z,1.40
2022-12-19T22:24:47.564Z,1.60
2022-12-19T22:27:14.818Z,1.70
2022-12-19T22:29:42.157Z,1.57
2022-12-19T22:32:09.477Z,1.70
2022-12-19T22:34:36.799Z,1.40
2022-12-19T22:37:04.608Z,1.53
2022-12-19T22:39:31.967Z,1.53
2022-12-19T22:41:59.263Z,1.40
2022-12-19T22:44:26.551Z,1.30
2022-12-19T22:46:53.875Z,1.77
2022-12-19T22:49:21.293Z,1.37
2022-12-19T22:51:49.324Z,1.43
2022-12-19T22:54:16.744Z,1.60
2022-12-19T22:56:44.136Z,1.87
2022-12-19T22:59:12.601Z,2.00
2022-12-19T23:01:41.706Z,2.00
2022-12-19T23:04:11.151Z,1.60
2022-12-19T23:06:39.035Z,1.43
2022-12-19T23:09:07.570Z,1.87
2022-12-19T23:11:36.568Z,1.67
2022-12-19T23:14:04.602Z,1.50
2022-12-19T23:16:31.966Z,1.27
2022-12-19T23:18:59.312Z,1.40
2022-12-19T23:21:26.899Z,1.70
2022-12-19T23:23:54.933Z,1.63
2022-12-19T23:26:23.941Z,2.17
2022-12-19T23:28:52.555Z,1.87
2022-12-19T23:31:20.111Z,1.60
2022-12-19T23:33:47.541Z,1.40
2022-12-19T23:36:15.241Z,2.07
2022-12-19T23:38:43.424Z,2.83
2022-12-19T23:41:12.039Z,1.53
2022-12-19T23:43:40.188Z,1.50
2022-12-19T23:46:08.508Z,1.47
2022-12-19T23:48:36.300Z,1.53
2022-12-19T23:51:07.991Z,1.50
2022-12-19T23:53:35.461Z,1.30
2022-12-19T23:56:07.761Z,1.60
2022-12-19T23:58:35.026Z,2.00
